Time;durP1;ratioP1;P1;durP2;ratioP2;P2;SDS_P1;SDS_P2;PMS_P1;PMS_P2;Temp;Humidity;BMP_temperature;BMP_pressure;BME280_temperature;BME280_humidity;BME280_pressure;Samples;Min_cycle;Max_cycle;Signal;HPM_P1;HPM_P2
2022/06/04 00:02:01;;;;;;;1.20;0.70;;;19.30;99.90;;;;;;4939987;28;20287;-96
2022/06/04 00:04:34;;;;;;;1.80;0.67;;;19.10;99.90;;;;;;4946683;29;20247;-96
2022/06/04 00:07:11;;;;;;;3.53;0.90;;;19.00;99.90;;;;;;4950240;29;20235;-96
2022/06/04 00:15:29;;;;;;;1.93;0.90;;;19.60;99.90;;;;;;4950821;29;20203;-93
2022/06/04 00:15:34;;;;;;;0.70;0.70;;;19.40;99.90;;;;;;4949441;29;20240;-96
2022/06/04 00:18:08;;;;;;;0.53;0.53;;;19.00;99.90;;;;;;4961298;29;20227;-96
2022/06/04 00:20:40;;;;;;;2.13;0.90;;;18.40;99.90;;;;;;4952238;29;20232;-96
2022/06/04 00:23:14;;;;;;;1.43;0.70;;;18.40;99.90;;;;;;4933360;29;20200;-96
2022/06/04 00:25:56;;;;;;;1.70;1.00;;;18.60;99.90;;;;;;4953567;28;20244;-96
2022/06/04 00:28:29;;;;;;;1.73;0.90;;;18.00;99.90;;;;;;4946862;29;20213;-96
2022/06/04 00:31:02;;;;;;;0.93;0.80;;;18.00;99.90;;;;;;4951746;28;20207;-96
2022/06/04 00:33:40;;;;;;;0.70;0.60;;;18.30;99.90;;;;;;4954823;29;20215;-96
2022/06/04 00:36:19;;;;;;;2.07;0.70;;;18.30;99.90;;;;;;4955783;29;20219;-96
2022/06/04 00:38:53;;;;;;;2.03;0.80;;;18.30;99.90;;;;;;4946363;29;20219;-96
2022/06/04 00:41:38;;;;;;;1.93;0.90;;;18.20;99.90;;;;;;4931418;29;20208;-96
2022/06/04 00:44:47;;;;;;;1.80;1.00;;;18.20;99.90;;;;;;4939308;29;20228;-96
2022/06/04 00:47:27;;;;;;;0.80;0.60;;;18.10;99.90;;;;;;4876854;29;20228;-96
2022/06/04 00:50:04;;;;;;;2.57;0.70;;;17.90;99.90;;;;;;4934395;29;20189;-96
2022/06/04 00:52:39;;;;;;;0.80;0.80;;;17.90;99.90;;;;;;4934411;29;20229;-96
2022/06/04 00:55:12;;;;;;;0.63;0.60;;;17.80;99.90;;;;;;4953225;29;20200;-96
2022/06/04 00:58:23;;;;;;;1.07;0.70;;;18.00;99.90;;;;;;4952163;29;20222;-96
2022/06/04 01:01:00;;;;;;;1.10;0.90;;;17.70;99.90;;;;;;4946981;29;20382;-94
2022/06/04 01:06:30;;;;;;;1.27;0.70;;;17.90;99.90;;;;;;4999493;28;20258;-96
2022/06/04 01:12:40;;;;;;;4.13;0.67;;;17.90;99.90;;;;;;5000664;28;20207;-96
2022/06/04 01:15:29;;;;;;;1.13;0.70;;;18.00;99.90;;;;;;4993882;28;20191;-96
2022/06/04 01:18:12;;;;;;;5.63;0.80;;;18.20;99.90;;;;;;5169019;23;20277;-96
2022/06/04 01:21:05;;;;;;;1.73;0.83;;;18.20;99.90;;;;;;4993160;28;20274;-96
2022/06/04 01:24:24;;;;;;;1.90;0.80;;;18.50;99.90;;;;;;5127395;23;20330;-92
2022/06/04 01:27:40;;;;;;;1.87;0.90;;;19.40;99.90;;;;;;4996126;28;20198;-95
2022/06/04 01:30:21;;;;;;;1.97;0.70;;;20.70;99.90;;;;;;4945356;28;20215;-94
2022/06/04 01:33:01;;;;;;;3.70;0.93;;;19.60;99.90;;;;;;4994406;28;20207;-96
2022/06/04 01:35:42;;;;;;;2.00;1.17;;;19.20;99.90;;;;;;4994478;28;20207;-96
2022/06/04 01:38:24;;;;;;;2.93;0.80;;;19.30;99.90;;;;;;4981836;28;20238;-96
2022/06/04 01:41:39;;;;;;;1.53;0.80;;;18.40;99.90;;;;;;4980535;28;20288;-96
2022/06/04 01:51:24;;;;;;;1.67;0.80;;;17.80;99.90;;;;;;4976779;29;20211;-96
2022/06/04 01:54:17;;;;;;;0.90;0.60;;;17.50;99.90;;;;;;4993935;28;20210;-96
2022/06/04 02:04:10;;;;;;;2.97;1.13;;;17.20;99.90;;;;;;4979443;28;20234;-96
2022/06/04 02:07:29;;;;;;;3.10;0.93;;;17.10;99.90;;;;;;4977976;28;20215;-96
2022/06/04 02:09:51;;;;;;;2.47;0.93;;;16.80;99.90;;;;;;4976725;29;20256;-96
2022/06/04 02:12:44;;;;;;;1.67;0.80;;;16.60;99.90;;;;;;4976341;29;20347;-96
2022/06/04 02:23:48;;;;;;;1.03;0.80;;;16.40;99.90;;;;;;5163229;23;20326;-96
2022/06/04 02:26:22;;;;;;;1.23;0.77;;;16.30;99.90;;;;;;4989603;28;20306;-96
2022/06/04 02:28:59;;;;;;;0.80;0.80;;;16.30;99.90;;;;;;4979925;28;20206;-96
2022/06/04 02:31:37;;;;;;;1.70;1.20;;;16.30;99.90;;;;;;4974714;28;20247;-96
2022/06/04 02:34:17;;;;;;;2.13;0.93;;;16.30;99.90;;;;;;4975897;28;20218;-95
2022/06/04 02:37:08;;;;;;;1.87;1.00;;;16.30;99.90;;;;;;5154919;23;20239;-96
2022/06/04 02:39:47;;;;;;;2.43;0.90;;;16.20;99.90;;;;;;4995940;28;20262;-96
2022/06/04 02:42:29;;;;;;;1.07;0.80;;;16.10;99.90;;;;;;4982853;28;20230;-96
2022/06/04 02:45:08;;;;;;;1.30;0.70;;;16.30;99.90;;;;;;4979395;28;20298;-96
2022/06/04 02:47:46;;;;;;;3.20;0.83;;;16.20;99.90;;;;;;4999598;28;20226;-96
2022/06/04 03:12:03;;;;;;;3.83;1.30;;;15.10;99.90;;;;;;4996139;28;20218;-96
2022/06/04 03:14:36;;;;;;;2.43;1.47;;;14.80;99.90;;;;;;4994900;28;20218;-96
2022/06/04 03:17:14;;;;;;;1.60;1.40;;;14.70;99.90;;;;;;4996617;28;20215;-96
2022/06/04 03:20:00;;;;;;;2.80;1.60;;;14.60;99.90;;;;;;4975513;28;20235;-95
2022/06/04 03:28:51;;;;;;;4.83;1.93;;;14.50;99.90;;;;;;4994452;28;20206;-96
2022/06/04 03:38:05;;;;;;;4.63;1.80;;;14.00;99.90;;;;;;4980450;28;20191;-96
2022/06/04 03:57:45;;;;;;;3.20;1.70;;;13.80;99.90;;;;;;4985833;28;20230;-96
2022/06/04 04:00:33;;;;;;;2.13;1.80;;;13.70;99.90;;;;;;4977893;28;20211;-95
2022/06/04 04:06:09;;;;;;;4.97;1.67;;;13.60;99.90;;;;;;4942118;29;20239;-96
2022/06/04 04:18:55;;;;;;;4.50;1.80;;;13.70;99.90;;;;;;4956099;29;20232;-95
2022/06/04 04:29:14;;;;;;;3.30;1.73;;;13.80;99.90;;;;;;4946403;29;20235;-95
2022/06/04 04:31:49;;;;;;;4.63;1.70;;;13.90;99.90;;;;;;4943098;29;20575;-95
2022/06/04 04:39:47;;;;;;;3.97;2.07;;;13.80;99.90;;;;;;4982991;28;20630;-95
2022/06/04 04:42:21;;;;;;;3.53;1.90;;;13.80;99.90;;;;;;4985225;28;20274;-95
2022/06/04 04:45:02;;;;;;;3.37;2.00;;;13.70;99.90;;;;;;4966274;28;20218;-94
2022/06/04 04:47:35;;;;;;;4.27;2.40;;;13.80;99.90;;;;;;4983519;28;20286;-94
2022/06/04 04:50:12;;;;;;;4.93;3.00;;;13.80;99.90;;;;;;4990795;28;20191;-95
2022/06/04 04:55:42;;;;;;;3.93;2.50;;;13.70;99.90;;;;;;5248806;23;20230;-96
2022/06/04 05:01:01;;;;;;;5.13;2.43;;;13.80;99.90;;;;;;4986557;28;20261;-96
2022/06/04 05:06:27;;;;;;;4.87;2.10;;;13.40;99.90;;;;;;4971893;28;20259;-96
2022/06/04 05:09:02;;;;;;;4.40;2.57;;;13.50;99.90;;;;;;4945707;29;20295;-96
2022/06/04 05:11:35;;;;;;;3.83;2.50;;;13.50;99.90;;;;;;4947756;29;20212;-96
2022/06/04 05:14:09;;;;;;;5.37;2.37;;;13.40;99.90;;;;;;4954208;29;20219;-94
2022/06/04 05:17:04;;;;;;;3.10;1.80;;;13.40;99.90;;;;;;4956968;29;20259;-94
2022/06/04 05:19:37;;;;;;;3.70;2.10;;;13.40;99.90;;;;;;4974088;28;20206;-96
2022/06/04 05:22:11;;;;;;;6.60;2.17;;;13.30;99.90;;;;;;4971681;29;20235;-96
2022/06/04 05:24:50;;;;;;;3.73;1.67;;;13.20;99.90;;;;;;4975575;29;20238;-96
2022/06/04 05:27:28;;;;;;;4.23;1.97;;;13.20;99.90;;;;;;4968477;29;20251;-96
2022/06/04 05:30:08;;;;;;;3.07;1.87;;;13.10;99.90;;;;;;4972502;29;20315;-96
2022/06/04 05:32:56;;;;;;;7.37;2.10;;;13.00;99.90;;;;;;4954542;29;20266;-96
2022/06/04 05:38:13;;;;;;;3.73;1.90;;;13.10;99.90;;;;;;4969363;29;20219;-96
2022/06/04 05:40:49;;;;;;;7.73;2.60;;;13.20;99.90;;;;;;4963579;29;20247;-96
2022/06/04 05:43:21;;;;;;;3.50;1.80;;;13.30;99.90;;;;;;4963669;29;20223;-94
2022/06/04 05:46:20;;;;;;;4.80;2.13;;;13.40;99.90;;;;;;4969836;28;20211;-95
2022/06/04 05:55:48;;;;;;;4.23;2.20;;;13.50;99.90;;;;;;4957662;29;20219;-95
2022/06/04 05:58:20;;;;;;;3.47;1.80;;;13.50;99.90;;;;;;4963016;28;20226;-95
2022/06/04 06:01:02;;;;;;;5.43;2.27;;;13.50;99.90;;;;;;4963503;28;20210;-96
2022/06/04 06:03:36;;;;;;;4.50;1.77;;;13.50;99.90;;;;;;4965652;29;20215;-95
2022/06/04 06:06:13;;;;;;;4.30;1.73;;;13.50;99.90;;;;;;4959805;29;20296;-96
2022/06/04 06:09:01;;;;;;;4.43;1.70;;;13.50;99.90;;;;;;4967208;29;20216;-94
2022/06/04 06:25:12;;;;;;;3.07;1.73;;;13.60;99.90;;;;;;4941402;29;20208;-95
2022/06/04 06:27:44;;;;;;;4.60;1.77;;;13.60;99.90;;;;;;4975952;28;20386;-96
2022/06/04 06:30:16;;;;;;;2.97;1.83;;;13.70;99.90;;;;;;4980833;28;20215;-95
2022/06/04 06:32:48;;;;;;;4.50;1.90;;;13.60;99.90;;;;;;4981175;28;20214;-96
2022/06/04 06:35:20;;;;;;;3.03;1.77;;;13.60;99.90;;;;;;4947657;29;20239;-96
2022/06/04 06:38:03;;;;;;;4.43;1.90;;;13.60;99.90;;;;;;4949917;28;20681;-96
2022/06/04 06:40:37;;;;;;;3.87;1.80;;;13.60;99.90;;;;;;4960072;29;20263;-96
2022/06/04 06:43:10;;;;;;;4.27;1.80;;;13.60;99.90;;;;;;4965006;28;20212;-96
2022/06/04 06:45:41;;;;;;;3.30;1.87;;;13.60;99.90;;;;;;4963676;28;20207;-96
2022/06/04 06:48:14;;;;;;;3.23;2.00;;;13.60;99.90;;;;;;4959679;29;20211;-96
2022/06/04 06:50:45;;;;;;;3.30;1.90;;;13.60;99.90;;;;;;4959271;29;20203;-96
2022/06/04 06:53:16;;;;;;;3.20;1.90;;;13.60;99.90;;;;;;4959895;29;20295;-96
2022/06/04 06:55:51;;;;;;;5.60;1.90;;;13.60;99.90;;;;;;5070490;23;20296;-96
2022/06/04 06:58:22;;;;;;;3.13;2.23;;;13.60;99.90;;;;;;4997353;28;20226;-96
2022/06/04 07:00:54;;;;;;;4.50;2.30;;;13.60;99.90;;;;;;4985526;28;20251;-96
2022/06/04 07:03:29;;;;;;;5.43;2.30;;;13.60;99.90;;;;;;4995951;28;20289;-95
2022/06/04 07:06:02;;;;;;;3.20;2.17;;;13.60;99.90;;;;;;4968207;28;20620;-96
2022/06/04 07:08:34;;;;;;;4.40;1.97;;;13.60;99.90;;;;;;4984443;28;20211;-96
2022/06/04 07:11:08;;;;;;;5.67;2.30;;;13.50;99.90;;;;;;4977364;28;20218;-96
2022/06/04 07:13:40;;;;;;;5.97;2.50;;;13.60;99.90;;;;;;4981816;28;20214;-96
2022/06/04 07:16:11;;;;;;;4.27;2.10;;;13.60;99.90;;;;;;4978517;28;20612;-96
2022/06/04 07:18:43;;;;;;;6.07;2.33;;;13.60;99.90;;;;;;4964309;28;20210;-96
2022/06/04 07:21:24;;;;;;;2.73;2.10;;;13.60;99.90;;;;;;4968127;28;20192;-96
2022/06/04 07:23:56;;;;;;;1.93;1.60;;;13.70;99.90;;;;;;4973587;28;20277;-96
2022/06/04 07:26:30;;;;;;;2.73;1.90;;;13.40;99.90;;;;;;4976650;28;20262;-96
2022/06/04 07:29:03;;;;;;;3.50;2.13;;;13.40;99.90;;;;;;4960877;28;20220;-96
2022/06/04 07:31:34;;;;;;;2.53;2.07;;;13.40;99.90;;;;;;4973990;28;20286;-96
2022/06/04 07:34:06;;;;;;;3.77;1.97;;;13.40;99.90;;;;;;4965087;28;20211;-96
2022/06/04 07:36:41;;;;;;;2.87;2.00;;;13.40;99.90;;;;;;4975324;28;20214;-96
2022/06/04 07:39:17;;;;;;;3.67;1.90;;;13.40;99.90;;;;;;4979443;28;20214;-96
2022/06/04 07:41:53;;;;;;;2.47;2.00;;;13.40;99.90;;;;;;4983502;28;20263;-96
2022/06/04 07:44:26;;;;;;;2.00;1.77;;;13.40;99.90;;;;;;4964504;29;20243;-96
2022/06/04 07:46:58;;;;;;;3.23;1.90;;;13.40;99.90;;;;;;4966800;28;20702;-96
2022/06/04 07:49:39;;;;;;;2.30;1.90;;;13.40;99.90;;;;;;4978624;28;20230;-96
2022/06/04 07:52:10;;;;;;;5.80;2.37;;;13.40;99.90;;;;;;4978883;28;20207;-95
2022/06/04 07:54:44;;;;;;;4.50;2.40;;;13.40;99.90;;;;;;4961876;29;20211;-95
2022/06/04 07:57:20;;;;;;;3.63;2.40;;;13.40;99.90;;;;;;4990200;28;20219;-96
2022/06/04 07:59:51;;;;;;;3.67;2.40;;;13.40;99.90;;;;;;4995574;28;20238;-96
2022/06/04 08:02:24;;;;;;;4.07;2.20;;;13.40;99.90;;;;;;4996692;28;20195;-95
2022/06/04 08:04:58;;;;;;;3.03;2.20;;;13.40;99.90;;;;;;4997391;28;20219;-95
2022/06/04 08:07:32;;;;;;;2.30;2.10;;;13.40;99.90;;;;;;4993212;28;20238;-94
2022/06/04 08:10:08;;;;;;;3.57;2.10;;;13.50;99.90;;;;;;4978599;28;20652;-95
2022/06/04 08:12:50;;;;;;;3.53;2.10;;;13.50;99.90;;;;;;4979127;28;20250;-96
2022/06/04 08:15:23;;;;;;;5.17;2.10;;;13.40;99.90;;;;;;4978677;28;20667;-96
2022/06/04 08:17:54;;;;;;;5.57;2.40;;;13.40;99.90;;;;;;4978410;28;20226;-95
2022/06/04 08:20:27;;;;;;;3.33;1.97;;;13.40;99.90;;;;;;4973395;28;20660;-96
2022/06/04 08:22:59;;;;;;;4.50;2.03;;;13.50;99.90;;;;;;4977814;28;20617;-95
2022/06/04 08:25:32;;;;;;;2.20;2.00;;;13.40;99.90;;;;;;4977659;28;20273;-96
2022/06/04 08:31:07;;;;;;;4.10;2.03;;;13.50;99.90;;;;;;5059657;27;2138404;-95
2022/06/04 08:33:39;;;;;;;2.67;2.07;;;13.50;99.90;;;;;;5114558;28;20201;-95
2022/06/04 08:36:21;;;;;;;3.33;2.43;;;13.40;99.90;;;;;;5101466;28;20541;-95
2022/06/04 08:38:53;;;;;;;3.60;2.13;;;13.50;99.90;;;;;;5107292;28;20540;-96
2022/06/04 08:41:38;;;;;;;6.23;2.03;;;13.50;99.90;;;;;;5100249;28;20259;-95
2022/06/04 08:44:19;;;;;;;6.47;2.30;;;13.50;99.90;;;;;;5121239;28;20213;-95
2022/06/04 08:46:56;;;;;;;4.67;2.00;;;13.50;99.90;;;;;;5130334;28;20201;-95
2022/06/04 08:49:32;;;;;;;4.80;1.90;;;13.40;99.90;;;;;;5113529;28;20217;-95
2022/06/04 08:52:11;;;;;;;2.93;2.20;;;13.40;99.90;;;;;;5132711;28;20254;-95
2022/06/04 08:57:38;;;;;;;3.60;2.10;;;13.40;99.90;;;;;;5117362;28;20674;-96
2022/06/04 09:00:15;;;;;;;5.60;2.43;;;13.40;99.90;;;;;;5114963;28;20675;-96
2022/06/04 09:03:05;;;;;;;4.30;2.17;;;13.40;99.90;;;;;;5114769;28;20217;-95
2022/06/04 09:06:13;;;;;;;3.40;2.00;;;13.40;99.90;;;;;;5115378;28;20222;-95
2022/06/04 09:08:53;;;;;;;3.93;2.40;;;13.30;99.90;;;;;;5109503;28;20275;-96
2022/06/04 09:11:29;;;;;;;3.90;2.40;;;13.20;99.90;;;;;;5122534;27;20209;-96
2022/06/04 09:14:32;;;;;;;3.90;2.60;;;13.30;99.90;;;;;;5130295;28;20205;-96
2022/06/04 09:17:06;;;;;;;2.67;2.30;;;13.40;99.90;;;;;;5110447;28;20221;-96
2022/06/04 09:19:42;;;;;;;5.30;2.37;;;13.40;99.90;;;;;;5110560;28;20264;-96
2022/06/04 09:22:21;;;;;;;7.87;2.67;;;13.30;99.90;;;;;;5094206;28;20213;-96
2022/06/04 09:24:53;;;;;;;5.73;2.60;;;13.30;99.90;;;;;;5099295;28;20206;-95
2022/06/04 09:27:35;;;;;;;3.83;2.60;;;13.10;99.90;;;;;;5118255;28;20198;-96
2022/06/04 09:30:21;;;;;;;3.13;2.47;;;13.20;99.90;;;;;;5119699;28;20226;-96
2022/06/04 09:33:05;;;;;;;4.20;2.30;;;13.20;99.90;;;;;;5116022;28;20219;-94
2022/06/04 09:35:42;;;;;;;4.57;2.00;;;13.30;99.90;;;;;;5123098;28;20199;-96
2022/06/04 09:38:26;;;;;;;6.40;2.00;;;13.30;99.90;;;;;;5131739;28;20198;-96
2022/06/04 09:41:03;;;;;;;3.53;2.07;;;13.40;99.90;;;;;;5116622;28;20557;-96
2022/06/04 09:43:36;;;;;;;3.40;2.00;;;13.40;99.90;;;;;;5095082;28;20195;-96
2022/06/04 09:46:10;;;;;;;3.37;2.10;;;13.40;99.90;;;;;;5102595;28;20214;-96
2022/06/04 09:48:52;;;;;;;3.50;2.40;;;13.40;99.90;;;;;;5102124;28;20202;-96
2022/06/04 09:51:28;;;;;;;2.90;1.93;;;13.50;99.90;;;;;;5102119;28;20231;-96
2022/06/04 09:54:05;;;;;;;2.67;1.97;;;13.50;99.90;;;;;;5100024;28;20248;-96
2022/06/04 09:56:40;;;;;;;4.13;2.23;;;13.50;99.90;;;;;;5101076;28;20221;-96
2022/06/04 09:59:24;;;;;;;3.97;2.00;;;13.50;99.90;;;;;;5100525;28;20292;-95
2022/06/04 10:01:59;;;;;;;4.17;2.07;;;13.50;99.90;;;;;;5098505;28;20203;-96
2022/06/04 10:04:44;;;;;;;2.87;2.00;;;13.50;99.90;;;;;;5098190;28;20215;-96
2022/06/04 10:07:20;;;;;;;5.60;1.97;;;13.50;99.90;;;;;;5078817;28;20204;-95
2022/06/04 10:09:59;;;;;;;2.50;1.80;;;13.50;99.90;;;;;;5077556;28;20239;-95
2022/06/04 10:15:40;;;;;;;1.97;1.60;;;13.50;99.90;;;;;;5097384;28;20700;-95
2022/06/04 10:18:29;;;;;;;4.67;2.23;;;13.50;99.90;;;;;;5098624;28;20202;-94
2022/06/04 10:21:04;;;;;;;3.63;1.90;;;13.50;99.90;;;;;;5099195;28;20206;-95
2022/06/04 10:23:57;;;;;;;2.13;1.80;;;13.30;99.90;;;;;;5098564;28;20202;-96
2022/06/04 10:26:59;;;;;;;2.40;1.90;;;13.30;99.90;;;;;;5083308;28;20211;-96
2022/06/04 10:30:01;;;;;;;3.27;2.03;;;13.30;99.90;;;;;;5078051;28;20226;-94
2022/06/04 10:32:50;;;;;;;2.63;1.80;;;13.40;99.90;;;;;;5076894;28;20236;-95
2022/06/04 10:35:38;;;;;;;2.23;1.63;;;13.40;99.90;;;;;;5062624;28;20207;-95
2022/06/04 10:38:23;;;;;;;3.20;1.90;;;13.40;99.90;;;;;;5084923;28;20199;-94
2022/06/04 10:41:10;;;;;;;2.47;2.20;;;13.40;99.90;;;;;;5067534;28;20211;-95
2022/06/04 10:44:32;;;;;;;2.20;1.67;;;13.40;99.90;;;;;;5097371;28;20265;-96
2022/06/04 10:47:19;;;;;;;7.20;2.03;;;13.40;99.90;;;;;;4980071;28;20301;-96
2022/06/04 10:50:19;;;;;;;2.47;1.97;;;13.40;99.90;;;;;;5075464;28;20216;-95
2022/06/04 10:52:57;;;;;;;4.33;1.87;;;13.40;99.90;;;;;;5082128;28;20236;-96
2022/06/04 10:55:41;;;;;;;2.87;1.90;;;13.40;99.90;;;;;;5098174;28;20215;-96
2022/06/04 10:58:36;;;;;;;3.50;2.00;;;13.30;99.90;;;;;;5097562;28;20463;-96
2022/06/04 11:01:17;;;;;;;3.13;1.70;;;13.40;99.90;;;;;;5096768;28;20651;-96
2022/06/04 11:03:58;;;;;;;2.63;2.30;;;13.30;99.90;;;;;;5097453;28;20374;-96
2022/06/04 11:06:31;;;;;;;3.10;1.90;;;13.30;99.90;;;;;;5097588;28;21044;-96
2022/06/04 11:09:08;;;;;;;2.17;1.97;;;13.30;99.90;;;;;;5097445;28;20247;-96
2022/06/04 11:11:45;;;;;;;1.83;1.70;;;13.30;99.90;;;;;;5079129;28;20258;-96
2022/06/04 11:14:36;;;;;;;4.63;1.70;;;13.30;99.90;;;;;;5094017;28;20251;-96
2022/06/04 11:17:14;;;;;;;2.87;1.77;;;13.30;99.90;;;;;;5097689;28;20199;-96
2022/06/04 11:19:56;;;;;;;3.83;1.80;;;13.30;99.90;;;;;;5099147;28;20253;-96
2022/06/04 11:22:36;;;;;;;2.60;1.87;;;13.20;99.90;;;;;;5114262;28;20195;-96
2022/06/04 11:25:24;;;;;;;2.57;1.80;;;13.20;99.90;;;;;;5116844;28;20209;-96
2022/06/04 11:27:59;;;;;;;2.00;1.80;;;13.20;99.90;;;;;;5107567;28;20207;-96
2022/06/04 11:30:52;;;;;;;2.93;2.03;;;13.20;99.90;;;;;;5098279;28;20295;-96
2022/06/04 11:33:36;;;;;;;3.80;2.37;;;13.30;99.90;;;;;;5088963;28;20232;-96
2022/06/04 11:36:18;;;;;;;2.50;2.30;;;13.20;99.90;;;;;;5079877;28;20214;-96
2022/06/04 11:39:03;;;;;;;3.53;2.20;;;13.20;99.90;;;;;;5079766;28;20234;-96
2022/06/04 11:41:43;;;;;;;5.07;2.40;;;13.20;99.90;;;;;;5059264;28;20211;-96
2022/06/04 11:44:39;;;;;;;3.60;2.63;;;13.20;99.90;;;;;;5077413;28;20239;-96
2022/06/04 11:47:26;;;;;;;3.80;2.23;;;13.30;99.90;;;;;;5080686;28;20265;-95
2022/06/04 11:50:17;;;;;;;5.03;2.33;;;13.30;99.90;;;;;;5061338;28;20207;-95
2022/06/04 11:53:03;;;;;;;5.97;2.47;;;13.20;99.90;;;;;;5077812;28;20207;-96
2022/06/04 11:55:43;;;;;;;2.53;2.30;;;13.20;99.90;;;;;;5099445;28;20203;-95
2022/06/04 11:58:39;;;;;;;2.87;2.67;;;13.20;99.90;;;;;;5096495;28;20231;-96
2022/06/04 12:01:23;;;;;;;4.57;2.80;;;13.20;99.90;;;;;;5095769;28;20212;-96
2022/06/04 12:04:01;;;;;;;2.83;2.40;;;13.20;99.90;;;;;;5096189;28;20230;-96
2022/06/04 12:06:42;;;;;;;3.57;2.67;;;13.20;99.90;;;;;;5096378;28;20237;-96
2022/06/04 12:09:20;;;;;;;4.73;2.60;;;13.20;99.90;;;;;;5096443;28;20207;-96
2022/06/04 12:12:00;;;;;;;3.73;2.37;;;13.20;99.90;;;;;;5079313;28;20682;-96
2022/06/04 12:14:39;;;;;;;3.67;2.23;;;13.20;99.90;;;;;;5095585;28;20215;-96
2022/06/04 12:17:23;;;;;;;3.77;2.60;;;13.20;99.90;;;;;;5096614;28;20211;-96
2022/06/04 12:25:50;;;;;;;3.87;2.50;;;13.20;99.90;;;;;;5099214;28;20211;-96
2022/06/04 12:28:28;;;;;;;2.63;2.23;;;13.20;99.90;;;;;;5107000;28;20207;-96
2022/06/04 12:31:01;;;;;;;2.40;2.20;;;13.20;99.90;;;;;;5100737;28;20552;-96
2022/06/04 12:33:37;;;;;;;3.53;2.40;;;13.20;99.90;;;;;;5101925;28;20262;-96
2022/06/04 12:36:15;;;;;;;3.10;2.80;;;13.20;99.90;;;;;;5099564;28;20647;-95
2022/06/04 12:39:02;;;;;;;4.70;2.53;;;13.20;99.90;;;;;;5083108;28;20241;-96
2022/06/04 12:41:46;;;;;;;3.90;2.67;;;13.30;99.90;;;;;;5107295;28;20218;-96
2022/06/04 12:44:32;;;;;;;4.33;2.70;;;13.30;99.90;;;;;;5115055;28;20199;-96
2022/06/04 12:47:17;;;;;;;2.50;2.30;;;13.30;99.90;;;;;;5101931;28;20251;-96
2022/06/04 12:49:56;;;;;;;2.70;2.50;;;13.40;99.90;;;;;;5113638;28;20218;-96
2022/06/04 12:52:46;;;;;;;5.20;2.50;;;13.30;99.90;;;;;;5107436;28;20303;-96
2022/06/04 12:55:25;;;;;;;4.60;2.40;;;13.30;99.90;;;;;;5094802;28;20207;-96
2022/06/04 12:58:01;;;;;;;3.93;2.53;;;13.40;99.90;;;;;;5094679;28;20261;-96
2022/06/04 13:00:39;;;;;;;4.17;2.40;;;13.20;99.90;;;;;;5090719;28;20229;-96
2022/06/04 13:06:37;;;;;;;2.50;2.10;;;13.30;99.90;;;;;;5047817;28;20247;-96
2022/06/04 13:09:39;;;;;;;2.90;2.20;;;13.40;99.90;;;;;;5061780;28;20755;-96
2022/06/04 13:12:31;;;;;;;3.63;1.80;;;13.40;99.90;;;;;;5040607;28;20235;-96
2022/06/04 13:15:30;;;;;;;3.07;1.83;;;13.40;99.90;;;;;;5059897;28;20258;-96
2022/06/04 13:18:03;;;;;;;5.03;2.10;;;13.50;99.90;;;;;;5024501;28;20240;-96
2022/06/04 13:20:42;;;;;;;3.20;2.03;;;13.50;99.90;;;;;;5025163;28;20213;-96
2022/06/04 13:23:26;;;;;;;2.60;1.73;;;13.50;99.90;;;;;;5042828;28;20208;-96
2022/06/04 13:26:30;;;;;;;3.50;1.60;;;13.50;99.90;;;;;;5056025;28;20211;-96
2022/06/04 13:29:03;;;;;;;3.10;1.63;;;13.40;99.90;;;;;;5048887;28;20260;-96
2022/06/04 13:31:38;;;;;;;4.47;1.70;;;13.50;99.90;;;;;;5057747;28;20415;-96
2022/06/04 13:34:16;;;;;;;1.83;1.60;;;13.60;99.90;;;;;;5053934;28;20259;-96
2022/06/04 13:36:48;;;;;;;3.43;1.83;;;13.60;99.90;;;;;;5059057;28;20223;-96
2022/06/04 13:39:22;;;;;;;2.50;1.53;;;13.60;99.90;;;;;;5041499;28;20208;-96
2022/06/04 13:42:05;;;;;;;1.87;1.27;;;13.40;99.90;;;;;;5098640;22;20264;-96
2022/06/04 13:44:40;;;;;;;2.10;1.70;;;13.40;99.90;;;;;;5048034;28;20209;-96
2022/06/04 13:47:17;;;;;;;1.73;1.40;;;13.50;99.90;;;;;;5023743;28;20224;-96
2022/06/04 13:49:53;;;;;;;2.57;1.30;;;13.50;99.90;;;;;;5030453;28;21459;-96
2022/06/04 13:52:30;;;;;;;2.43;1.27;;;13.40;99.90;;;;;;5019944;28;20267;-96
2022/06/04 13:55:05;;;;;;;3.13;1.20;;;13.40;99.90;;;;;;5020141;28;20229;-96
2022/06/04 13:57:42;;;;;;;1.10;1.00;;;13.50;99.90;;;;;;5020388;28;20225;-96
2022/06/04 14:00:18;;;;;;;2.00;1.10;;;13.60;99.90;;;;;;5032918;28;20558;-96
2022/06/04 14:02:51;;;;;;;0.90;0.80;;;13.60;99.90;;;;;;5039375;28;20205;-96
2022/06/04 14:05:46;;;;;;;2.00;0.80;;;13.70;99.90;;;;;;5040555;28;20201;-96
2022/06/04 14:08:20;;;;;;;0.70;0.70;;;13.80;99.90;;;;;;5034253;28;20227;-96
2022/06/04 14:11:11;;;;;;;0.67;0.67;;;13.90;99.90;;;;;;5039280;28;20282;-96
2022/06/04 14:14:21;;;;;;;1.07;0.70;;;14.00;99.90;;;;;;5022871;28;20241;-96
2022/06/04 14:17:08;;;;;;;1.10;1.00;;;14.10;99.90;;;;;;5037891;28;20214;-96
2022/06/04 14:20:09;;;;;;;1.77;1.30;;;14.20;99.90;;;;;;5048685;28;20269;-96
2022/06/04 14:22:48;;;;;;;3.10;1.30;;;14.30;99.90;;;;;;5037598;28;20209;-96
2022/06/04 14:25:29;;;;;;;1.10;1.00;;;14.40;99.90;;;;;;5039847;28;20209;-95
2022/06/04 14:28:17;;;;;;;1.30;0.90;;;14.40;99.90;;;;;;5040035;28;20726;-96
2022/06/04 14:31:02;;;;;;;1.00;0.90;;;14.40;99.90;;;;;;5039207;28;20212;-96
2022/06/04 14:33:35;;;;;;;1.80;0.80;;;14.60;99.90;;;;;;5037000;28;20240;-96
2022/06/04 14:36:10;;;;;;;1.53;0.60;;;14.60;99.90;;;;;;5021154;28;20663;-96
2022/06/04 14:38:42;;;;;;;1.03;0.80;;;14.60;99.90;;;;;;5020371;28;20216;-95
2022/06/04 14:41:25;;;;;;;1.83;0.63;;;14.70;99.90;;;;;;5021133;28;20226;-96
2022/06/04 14:44:34;;;;;;;1.67;0.90;;;15.10;99.90;;;;;;5041127;28;20240;-96
2022/06/04 14:47:28;;;;;;;0.90;0.70;;;16.20;99.90;;;;;;5020389;28;20266;-96
2022/06/04 14:50:25;;;;;;;2.67;0.87;;;16.80;99.90;;;;;;5043444;28;20221;-96
2022/06/04 14:53:09;;;;;;;1.50;0.60;;;17.20;99.90;;;;;;5035871;28;20217;-95
2022/06/04 14:56:04;;;;;;;0.67;0.60;;;17.90;99.90;;;;;;5048258;28;20185;-96
2022/06/04 14:59:06;;;;;;;1.43;0.50;;;18.20;99.90;;;;;;5033992;28;20279;-96
2022/06/04 15:02:10;;;;;;;3.33;0.50;;;17.90;99.90;;;;;;5029095;28;20213;-96
2022/06/04 15:05:16;;;;;;;1.57;0.60;;;18.10;99.90;;;;;;5037934;28;20249;-96
2022/06/04 15:08:23;;;;;;;1.00;0.60;;;18.10;99.90;;;;;;5053046;28;20309;-96
2022/06/04 15:11:08;;;;;;;0.73;0.70;;;18.00;99.90;;;;;;5046354;28;20256;-96
2022/06/04 15:13:49;;;;;;;1.83;0.80;;;17.60;99.90;;;;;;5047160;28;20228;-96
2022/06/04 15:16:36;;;;;;;2.27;0.57;;;17.50;99.90;;;;;;5026807;28;20223;-96
2022/06/04 15:19:33;;;;;;;2.30;0.87;;;17.20;99.90;;;;;;5051165;28;20216;-96
2022/06/04 15:25:58;;;;;;;4.73;0.93;;;17.30;99.90;;;;;;5041643;28;20204;-96
2022/06/04 15:34:26;;;;;;;1.10;0.67;;;17.50;99.90;;;;;;5056159;28;20240;-96
2022/06/04 15:58:08;;;;;;;1.13;0.57;;;17.90;99.90;;;;;;5035213;28;20224;-96
2022/06/04 16:00:51;;;;;;;1.97;0.70;;;17.70;99.90;;;;;;5024868;28;20207;-96
2022/06/04 16:06:26;;;;;;;0.70;0.70;;;17.80;99.90;;;;;;5031444;28;20209;-96
2022/06/04 16:09:02;;;;;;;1.53;0.53;;;17.70;99.90;;;;;;5011634;28;20600;-96
2022/06/04 16:11:56;;;;;;;1.03;0.50;;;17.60;99.90;;;;;;5002078;28;20254;-96
2022/06/04 16:14:54;;;;;;;1.13;0.60;;;17.20;99.90;;;;;;5021332;28;20275;-96
2022/06/04 16:17:41;;;;;;;1.20;0.63;;;16.80;99.90;;;;;;5031710;28;20212;-96
2022/06/04 16:20:34;;;;;;;1.03;0.70;;;16.50;99.90;;;;;;5009988;28;20202;-96
2022/06/04 16:23:19;;;;;;;1.87;0.70;;;16.50;99.90;;;;;;5037361;28;20213;-96
2022/06/04 16:25:59;;;;;;;2.77;0.70;;;16.70;99.90;;;;;;5025135;28;20248;-96
2022/06/04 16:28:51;;;;;;;2.37;0.80;;;16.50;99.90;;;;;;5027275;28;20209;-96
2022/06/04 16:31:28;;;;;;;1.00;0.90;;;16.40;99.90;;;;;;5008639;28;20201;-96
2022/06/04 16:34:05;;;;;;;1.17;0.80;;;16.30;99.90;;;;;;5042378;28;20229;-96
2022/06/04 16:36:56;;;;;;;0.97;0.70;;;16.30;99.90;;;;;;5026003;28;20224;-96
2022/06/04 16:39:46;;;;;;;0.67;0.67;;;16.30;99.90;;;;;;5025851;28;20261;-96
2022/06/04 16:42:41;;;;;;;1.00;0.60;;;16.40;99.90;;;;;;5027603;28;20228;-95
2022/06/04 16:45:17;;;;;;;1.17;0.50;;;16.60;99.90;;;;;;5024840;28;20295;-96
2022/06/04 16:48:10;;;;;;;1.20;0.70;;;16.40;99.90;;;;;;5025733;28;20202;-96
2022/06/04 16:51:01;;;;;;;0.80;0.60;;;16.50;99.90;;;;;;5025583;28;20721;-96
2022/06/04 16:53:38;;;;;;;0.97;0.67;;;16.80;99.90;;;;;;4994537;28;20245;-96
2022/06/04 16:56:11;;;;;;;2.20;0.70;;;16.90;99.90;;;;;;5028707;28;20256;-96
2022/06/04 17:01:32;;;;;;;1.47;0.53;;;16.90;99.90;;;;;;5028992;28;20201;-96
2022/06/04 17:04:33;;;;;;;0.83;0.50;;;16.90;99.90;;;;;;5016126;28;20646;-96
2022/06/04 17:10:21;;;;;;;1.20;0.60;;;17.00;99.90;;;;;;5033630;28;20283;-96
2022/06/04 17:15:46;;;;;;;1.23;0.50;;;17.00;99.90;;;;;;5384813;23;20243;-96
2022/06/04 17:25:38;;;;;;;0.40;0.40;;;17.20;99.90;;;;;;5057255;28;20239;-96
2022/06/04 17:28:38;;;;;;;0.60;0.60;;;17.20;99.90;;;;;;5050288;28;20261;-96
2022/06/04 17:46:01;;;;;;;1.90;1.07;;;17.90;99.90;;;;;;5042909;28;20589;-90